sensor_id;sensor_type;location;lat;lon;timestamp;P1;durP1;ratioP1;P2;durP2;ratioP2
71671;SDS011;67659;45.554;11.812;2024-02-23T00:01:16;58.30;;;32.85;;
71671;SDS011;67659;45.554;11.812;2024-02-23T00:03:43;57.67;;;31.02;;
71671;SDS011;67659;45.554;11.812;2024-02-23T00:06:11;54.87;;;29.60;;
71671;SDS011;67659;45.554;11.812;2024-02-23T00:08:38;61.03;;;34.10;;
71671;SDS011;67659;45.554;11.812;2024-02-23T00:11:05;56.05;;;29.35;;
71671;SDS011;67659;45.554;11.812;2024-02-23T00:13:32;52.30;;;29.73;;
71671;SDS011;67659;45.554;11.812;2024-02-23T00:15:58;52.35;;;28.27;;
71671;SDS011;67659;45.554;11.812;2024-02-23T00:18:26;48.97;;;27.50;;
71671;SDS011;67659;45.554;11.812;2024-02-23T00:20:52;52.40;;;29.58;;
71671;SDS011;67659;45.554;11.812;2024-02-23T00:23:19;55.40;;;32.47;;
71671;SDS011;67659;45.554;11.812;2024-02-23T00:25:46;50.70;;;28.23;;
71671;SDS011;67659;45.554;11.812;2024-02-23T00:28:16;48.35;;;27.13;;
71671;SDS011;67659;45.554;11.812;2024-02-23T00:30:42;48.30;;;25.97;;
71671;SDS011;67659;45.554;11.812;2024-02-23T00:33:09;51.78;;;28.58;;
71671;SDS011;67659;45.554;11.812;2024-02-23T00:35:35;52.63;;;29.05;;
71671;SDS011;67659;45.554;11.812;2024-02-23T00:38:01;57.08;;;32.20;;
71671;SDS011;67659;45.554;11.812;2024-02-23T00:40:27;63.50;;;35.80;;
71671;SDS011;67659;45.554;11.812;2024-02-23T00:42:54;60.80;;;34.00;;
71671;SDS011;67659;45.554;11.812;2024-02-23T00:45:20;48.35;;;25.73;;
71671;SDS011;67659;45.554;11.812;2024-02-23T00:47:46;54.10;;;29.48;;
71671;SDS011;67659;45.554;11.812;2024-02-23T00:50:13;47.05;;;26.50;;
71671;SDS011;67659;45.554;11.812;2024-02-23T00:52:40;47.13;;;25.52;;
71671;SDS011;67659;45.554;11.812;2024-02-23T00:55:06;52.10;;;29.93;;
71671;SDS011;67659;45.554;11.812;2024-02-23T00:57:33;51.75;;;29.10;;
71671;SDS011;67659;45.554;11.812;2024-02-23T01:00:00;51.00;;;28.40;;
71671;SDS011;67659;45.554;11.812;2024-02-23T01:02:30;50.97;;;28.38;;
71671;SDS011;67659;45.554;11.812;2024-02-23T01:04:56;50.45;;;27.63;;
71671;SDS011;67659;45.554;11.812;2024-02-23T01:07:23;45.50;;;25.07;;
71671;SDS011;67659;45.554;11.812;2024-02-23T01:09:50;43.95;;;23.27;;
71671;SDS011;67659;45.554;11.812;2024-02-23T01:12:16;45.30;;;23.55;;
71671;SDS011;67659;45.554;11.812;2024-02-23T01:14:42;41.47;;;23.38;;
71671;SDS011;67659;45.554;11.812;2024-02-23T01:17:08;41.07;;;23.77;;
71671;SDS011;67659;45.554;11.812;2024-02-23T01:19:34;38.88;;;20.67;;
71671;SDS011;67659;45.554;11.812;2024-02-23T01:22:00;41.55;;;21.98;;
71671;SDS011;67659;45.554;11.812;2024-02-23T01:24:26;39.03;;;21.58;;
71671;SDS011;67659;45.554;11.812;2024-02-23T01:26:55;37.43;;;20.30;;
71671;SDS011;67659;45.554;11.812;2024-02-23T01:29:22;38.28;;;20.55;;
71671;SDS011;67659;45.554;11.812;2024-02-23T01:31:50;34.72;;;19.88;;
71671;SDS011;67659;45.554;11.812;2024-02-23T01:34:16;35.72;;;19.98;;
71671;SDS011;67659;45.554;11.812;2024-02-23T01:36:43;35.75;;;19.98;;
71671;SDS011;67659;45.554;11.812;2024-02-23T01:39:09;34.47;;;18.60;;
71671;SDS011;67659;45.554;11.812;2024-02-23T01:41:36;33.80;;;18.55;;
71671;SDS011;67659;45.554;11.812;2024-02-23T01:44:02;33.60;;;18.75;;
71671;SDS011;67659;45.554;11.812;2024-02-23T01:46:28;34.25;;;17.42;;
71671;SDS011;67659;45.554;11.812;2024-02-23T01:48:54;32.15;;;17.42;;
71671;SDS011;67659;45.554;11.812;2024-02-23T01:51:21;33.40;;;17.63;;
71671;SDS011;67659;45.554;11.812;2024-02-23T01:53:47;30.77;;;16.33;;
71671;SDS011;67659;45.554;11.812;2024-02-23T01:56:13;33.15;;;17.35;;
71671;SDS011;67659;45.554;11.812;2024-02-23T01:58:43;31.20;;;17.38;;
71671;SDS011;67659;45.554;11.812;2024-02-23T02:01:12;31.73;;;16.92;;
71671;SDS011;67659;45.554;11.812;2024-02-23T02:03:38;31.17;;;16.20;;
71671;SDS011;67659;45.554;11.812;2024-02-23T02:06:07;29.65;;;16.13;;
71671;SDS011;67659;45.554;11.812;2024-02-23T02:08:35;29.88;;;15.43;;
71671;SDS011;67659;45.554;11.812;2024-02-23T02:11:02;27.85;;;15.20;;
71671;SDS011;67659;45.554;11.812;2024-02-23T02:13:28;30.70;;;15.50;;
71671;SDS011;67659;45.554;11.812;2024-02-23T02:15:55;28.83;;;16.00;;
71671;SDS011;67659;45.554;11.812;2024-02-23T02:18:22;28.33;;;14.38;;
71671;SDS011;67659;45.554;11.812;2024-02-23T02:20:51;29.52;;;15.45;;
71671;SDS011;67659;45.554;11.812;2024-02-23T02:23:19;28.08;;;15.75;;
71671;SDS011;67659;45.554;11.812;2024-02-23T02:25:45;29.67;;;15.23;;
71671;SDS011;67659;45.554;11.812;2024-02-23T02:28:17;30.02;;;15.00;;
71671;SDS011;67659;45.554;11.812;2024-02-23T02:30:43;27.58;;;15.02;;
71671;SDS011;67659;45.554;11.812;2024-02-23T02:33:08;28.23;;;14.50;;
71671;SDS011;67659;45.554;11.812;2024-02-23T02:35:34;27.05;;;13.43;;
71671;SDS011;67659;45.554;11.812;2024-02-23T02:38:00;27.00;;;14.55;;
71671;SDS011;67659;45.554;11.812;2024-02-23T02:40:26;26.45;;;13.77;;
71671;SDS011;67659;45.554;11.812;2024-02-23T02:42:52;25.43;;;14.03;;
71671;SDS011;67659;45.554;11.812;2024-02-23T02:45:18;23.00;;;12.90;;
71671;SDS011;67659;45.554;11.812;2024-02-23T02:47:44;30.53;;;16.13;;
71671;SDS011;67659;45.554;11.812;2024-02-23T02:50:09;31.85;;;18.17;;
71671;SDS011;67659;45.554;11.812;2024-02-23T02:52:35;26.88;;;14.85;;
71671;SDS011;67659;45.554;11.812;2024-02-23T02:55:01;30.70;;;15.83;;
71671;SDS011;67659;45.554;11.812;2024-02-23T02:57:27;23.38;;;12.73;;
71671;SDS011;67659;45.554;11.812;2024-02-23T02:59:53;24.55;;;13.23;;
71671;SDS011;67659;45.554;11.812;2024-02-23T03:02:19;24.87;;;12.70;;
71671;SDS011;67659;45.554;11.812;2024-02-23T03:04:47;23.27;;;11.88;;
71671;SDS011;67659;45.554;11.812;2024-02-23T03:07:14;21.05;;;11.93;;
71671;SDS011;67659;45.554;11.812;2024-02-23T03:09:41;22.75;;;12.63;;
71671;SDS011;67659;45.554;11.812;2024-02-23T03:12:07;24.40;;;12.60;;
71671;SDS011;67659;45.554;11.812;2024-02-23T03:14:33;23.02;;;12.13;;
71671;SDS011;67659;45.554;11.812;2024-02-23T03:16:59;24.30;;;12.13;;
71671;SDS011;67659;45.554;11.812;2024-02-23T03:19:25;22.40;;;12.18;;
71671;SDS011;67659;45.554;11.812;2024-02-23T03:21:52;20.70;;;10.87;;
71671;SDS011;67659;45.554;11.812;2024-02-23T03:24:18;21.75;;;10.98;;
71671;SDS011;67659;45.554;11.812;2024-02-23T03:26:43;22.30;;;12.73;;
71671;SDS011;67659;45.554;11.812;2024-02-23T03:29:09;20.47;;;11.13;;
71671;SDS011;67659;45.554;11.812;2024-02-23T03:31:35;21.00;;;10.95;;
71671;SDS011;67659;45.554;11.812;2024-02-23T03:34:02;19.90;;;10.82;;
71671;SDS011;67659;45.554;11.812;2024-02-23T03:36:28;21.02;;;11.73;;
71671;SDS011;67659;45.554;11.812;2024-02-23T03:38:54;17.70;;;10.20;;
71671;SDS011;67659;45.554;11.812;2024-02-23T03:41:20;17.80;;;9.80;;
71671;SDS011;67659;45.554;11.812;2024-02-23T03:43:47;19.02;;;10.82;;
71671;SDS011;67659;45.554;11.812;2024-02-23T03:46:17;17.92;;;10.43;;
71671;SDS011;67659;45.554;11.812;2024-02-23T03:48:43;16.60;;;8.30;;
71671;SDS011;67659;45.554;11.812;2024-02-23T03:51:10;16.92;;;9.18;;
71671;SDS011;67659;45.554;11.812;2024-02-23T03:53:36;17.48;;;8.95;;
71671;SDS011;67659;45.554;11.812;2024-02-23T03:56:01;16.50;;;8.50;;
71671;SDS011;67659;45.554;11.812;2024-02-23T03:58:28;15.33;;;9.10;;
71671;SDS011;67659;45.554;11.812;2024-02-23T04:00:54;13.05;;;7.55;;
71671;SDS011;67659;45.554;11.812;2024-02-23T04:03:20;14.45;;;7.97;;
71671;SDS011;67659;45.554;11.812;2024-02-23T04:05:46;14.45;;;7.03;;
71671;SDS011;67659;45.554;11.812;2024-02-23T04:08:12;12.43;;;7.05;;
71671;SDS011;67659;45.554;11.812;2024-02-23T04:10:39;12.07;;;6.70;;
71671;SDS011;67659;45.554;11.812;2024-02-23T04:13:05;13.68;;;7.35;;
71671;SDS011;67659;45.554;11.812;2024-02-23T04:15:32;12.93;;;6.65;;
71671;SDS011;67659;45.554;11.812;2024-02-23T04:18:00;14.32;;;7.18;;
71671;SDS011;67659;45.554;11.812;2024-02-23T04:20:26;13.43;;;6.68;;
71671;SDS011;67659;45.554;11.812;2024-02-23T04:22:53;13.20;;;6.47;;
71671;SDS011;67659;45.554;11.812;2024-02-23T04:25:19;13.45;;;7.32;;
71671;SDS011;67659;45.554;11.812;2024-02-23T04:27:45;12.38;;;6.95;;
71671;SDS011;67659;45.554;11.812;2024-02-23T04:30:12;12.82;;;7.38;;
71671;SDS011;67659;45.554;11.812;2024-02-23T04:32:39;15.18;;;7.63;;
71671;SDS011;67659;45.554;11.812;2024-02-23T04:35:05;13.00;;;7.77;;
71671;SDS011;67659;45.554;11.812;2024-02-23T04:37:32;13.65;;;7.07;;
71671;SDS011;67659;45.554;11.812;2024-02-23T04:39:58;13.50;;;7.57;;
71671;SDS011;67659;45.554;11.812;2024-02-23T04:42:24;15.07;;;7.35;;
71671;SDS011;67659;45.554;11.812;2024-02-23T04:44:51;12.95;;;7.55;;
71671;SDS011;67659;45.554;11.812;2024-02-23T04:47:19;15.17;;;7.70;;
71671;SDS011;67659;45.554;11.812;2024-02-23T04:49:46;15.77;;;9.18;;
71671;SDS011;67659;45.554;11.812;2024-02-23T04:52:12;12.70;;;7.20;;
71671;SDS011;67659;45.554;11.812;2024-02-23T04:54:39;12.52;;;7.28;;
71671;SDS011;67659;45.554;11.812;2024-02-23T04:57:05;13.13;;;6.78;;
71671;SDS011;67659;45.554;11.812;2024-02-23T04:59:33;12.33;;;6.80;;
71671;SDS011;67659;45.554;11.812;2024-02-23T05:01:59;14.23;;;7.40;;
71671;SDS011;67659;45.554;11.812;2024-02-23T05:04:25;13.25;;;6.70;;
71671;SDS011;67659;45.554;11.812;2024-02-23T05:06:51;12.85;;;6.50;;
71671;SDS011;67659;45.554;11.812;2024-02-23T05:09:18;12.38;;;6.68;;
71671;SDS011;67659;45.554;11.812;2024-02-23T05:11:44;12.27;;;6.13;;
71671;SDS011;67659;45.554;11.812;2024-02-23T05:14:11;12.20;;;6.60;;
71671;SDS011;67659;45.554;11.812;2024-02-23T05:16:37;12.98;;;6.47;;
71671;SDS011;67659;45.554;11.812;2024-02-23T05:19:03;12.65;;;6.78;;
71671;SDS011;67659;45.554;11.812;2024-02-23T05:21:29;12.40;;;6.47;;
71671;SDS011;67659;45.554;11.812;2024-02-23T05:23:56;10.30;;;5.80;;
71671;SDS011;67659;45.554;11.812;2024-02-23T05:26:22;13.02;;;6.07;;
71671;SDS011;67659;45.554;11.812;2024-02-23T05:28:48;13.63;;;6.32;;
71671;SDS011;67659;45.554;11.812;2024-02-23T05:31:14;13.30;;;5.97;;
71671;SDS011;67659;45.554;11.812;2024-02-23T05:33:40;11.88;;;6.13;;
71671;SDS011;67659;45.554;11.812;2024-02-23T05:36:07;10.90;;;5.70;;
71671;SDS011;67659;45.554;11.812;2024-02-23T05:38:33;11.23;;;5.88;;
71671;SDS011;67659;45.554;11.812;2024-02-23T05:40:59;11.73;;;6.00;;
71671;SDS011;67659;45.554;11.812;2024-02-23T05:43:26;12.55;;;6.28;;
71671;SDS011;67659;45.554;11.812;2024-02-23T05:45:52;11.47;;;6.13;;
71671;SDS011;67659;45.554;11.812;2024-02-23T05:48:19;10.98;;;6.00;;
71671;SDS011;67659;45.554;11.812;2024-02-23T05:50:45;12.05;;;5.97;;
71671;SDS011;67659;45.554;11.812;2024-02-23T05:53:11;11.60;;;6.13;;
71671;SDS011;67659;45.554;11.812;2024-02-23T05:55:37;13.70;;;6.32;;
71671;SDS011;67659;45.554;11.812;2024-02-23T05:58:03;12.70;;;5.87;;
71671;SDS011;67659;45.554;11.812;2024-02-23T06:00:30;12.57;;;6.30;;
71671;SDS011;67659;45.554;11.812;2024-02-23T06:02:57;12.30;;;6.22;;
71671;SDS011;67659;45.554;11.812;2024-02-23T06:05:23;12.65;;;6.18;;
71671;SDS011;67659;45.554;11.812;2024-02-23T06:07:49;13.57;;;6.80;;
71671;SDS011;67659;45.554;11.812;2024-02-23T06:10:16;14.20;;;6.60;;
71671;SDS011;67659;45.554;11.812;2024-02-23T06:12:42;14.15;;;6.88;;
71671;SDS011;67659;45.554;11.812;2024-02-23T06:15:08;15.27;;;6.85;;
71671;SDS011;67659;45.554;11.812;2024-02-23T06:17:34;15.85;;;7.20;;
71671;SDS011;67659;45.554;11.812;2024-02-23T06:20:00;16.25;;;7.30;;
71671;SDS011;67659;45.554;11.812;2024-02-23T06:22:26;14.23;;;6.53;;
71671;SDS011;67659;45.554;11.812;2024-02-23T06:24:52;14.57;;;6.30;;
71671;SDS011;67659;45.554;11.812;2024-02-23T06:27:18;12.48;;;6.15;;
71671;SDS011;67659;45.554;11.812;2024-02-23T06:29:44;14.73;;;6.30;;
71671;SDS011;67659;45.554;11.812;2024-02-23T06:32:10;11.70;;;6.32;;
71671;SDS011;67659;45.554;11.812;2024-02-23T06:34:35;12.10;;;6.47;;
71671;SDS011;67659;45.554;11.812;2024-02-23T06:37:01;14.57;;;5.83;;
71671;SDS011;67659;45.554;11.812;2024-02-23T06:39:28;19.77;;;6.35;;
71671;SDS011;67659;45.554;11.812;2024-02-23T06:41:54;16.67;;;6.68;;
71671;SDS011;67659;45.554;11.812;2024-02-23T06:44:19;14.90;;;6.47;;
71671;SDS011;67659;45.554;11.812;2024-02-23T06:46:45;13.55;;;6.25;;
71671;SDS011;67659;45.554;11.812;2024-02-23T06:49:11;13.47;;;5.93;;
71671;SDS011;67659;45.554;11.812;2024-02-23T06:51:37;12.88;;;6.18;;
71671;SDS011;67659;45.554;11.812;2024-02-23T06:54:05;15.15;;;6.20;;
71671;SDS011;67659;45.554;11.812;2024-02-23T06:56:33;16.25;;;5.90;;
71671;SDS011;67659;45.554;11.812;2024-02-23T06:58:59;14.65;;;5.68;;
71671;SDS011;67659;45.554;11.812;2024-02-23T07:01:26;13.23;;;5.77;;
71671;SDS011;67659;45.554;11.812;2024-02-23T07:03:53;14.90;;;5.85;;
71671;SDS011;67659;45.554;11.812;2024-02-23T07:06:19;13.13;;;5.45;;
71671;SDS011;67659;45.554;11.812;2024-02-23T07:08:45;13.18;;;6.00;;
71671;SDS011;67659;45.554;11.812;2024-02-23T07:11:12;12.43;;;6.03;;
71671;SDS011;67659;45.554;11.812;2024-02-23T07:13:37;12.20;;;5.60;;
71671;SDS011;67659;45.554;11.812;2024-02-23T07:16:03;13.52;;;5.72;;
71671;SDS011;67659;45.554;11.812;2024-02-23T07:18:30;15.77;;;6.35;;
71671;SDS011;67659;45.554;11.812;2024-02-23T07:20:56;13.20;;;6.30;;
71671;SDS011;67659;45.554;11.812;2024-02-23T07:23:21;13.57;;;6.15;;
71671;SDS011;67659;45.554;11.812;2024-02-23T07:25:48;12.10;;;5.35;;
71671;SDS011;67659;45.554;11.812;2024-02-23T07:28:16;14.23;;;6.00;;
71671;SDS011;67659;45.554;11.812;2024-02-23T07:30:45;14.70;;;6.10;;
71671;SDS011;67659;45.554;11.812;2024-02-23T07:33:11;14.95;;;5.85;;
71671;SDS011;67659;45.554;11.812;2024-02-23T07:35:37;14.75;;;5.82;;
71671;SDS011;67659;45.554;11.812;2024-02-23T07:38:03;12.57;;;5.63;;
71671;SDS011;67659;45.554;11.812;2024-02-23T07:40:29;13.70;;;5.47;;
71671;SDS011;67659;45.554;11.812;2024-02-23T07:42:57;14.00;;;5.80;;
71671;SDS011;67659;45.554;11.812;2024-02-23T07:45:22;13.00;;;5.68;;
71671;SDS011;67659;45.554;11.812;2024-02-23T07:47:48;14.50;;;5.37;;
71671;SDS011;67659;45.554;11.812;2024-02-23T07:50:14;13.75;;;5.53;;
71671;SDS011;67659;45.554;11.812;2024-02-23T07:52:41;14.88;;;5.35;;
71671;SDS011;67659;45.554;11.812;2024-02-23T07:55:07;13.57;;;5.57;;
71671;SDS011;67659;45.554;11.812;2024-02-23T07:57:33;12.77;;;5.57;;
71671;SDS011;67659;45.554;11.812;2024-02-23T07:59:59;11.77;;;5.50;;
71671;SDS011;67659;45.554;11.812;2024-02-23T08:02:25;14.20;;;5.85;;
71671;SDS011;67659;45.554;11.812;2024-02-23T08:04:52;14.65;;;5.88;;
71671;SDS011;67659;45.554;11.812;2024-02-23T08:07:17;13.33;;;5.53;;
71671;SDS011;67659;45.554;11.812;2024-02-23T08:09:43;14.18;;;5.68;;
71671;SDS011;67659;45.554;11.812;2024-02-23T08:12:09;13.77;;;5.43;;
71671;SDS011;67659;45.554;11.812;2024-02-23T08:14:36;13.70;;;5.78;;
71671;SDS011;67659;45.554;11.812;2024-02-23T08:17:02;12.50;;;5.20;;
71671;SDS011;67659;45.554;11.812;2024-02-23T08:19:28;14.73;;;5.90;;
71671;SDS011;67659;45.554;11.812;2024-02-23T08:21:54;12.65;;;5.90;;
71671;SDS011;67659;45.554;11.812;2024-02-23T08:24:20;16.00;;;6.30;;
71671;SDS011;67659;45.554;11.812;2024-02-23T08:26:46;15.07;;;5.97;;
71671;SDS011;67659;45.554;11.812;2024-02-23T08:29:12;13.65;;;5.90;;
71671;SDS011;67659;45.554;11.812;2024-02-23T08:31:37;11.85;;;5.65;;
71671;SDS011;67659;45.554;11.812;2024-02-23T08:34:03;13.17;;;5.83;;
71671;SDS011;67659;45.554;11.812;2024-02-23T08:36:29;10.60;;;5.30;;
71671;SDS011;67659;45.554;11.812;2024-02-23T08:38:55;14.10;;;6.30;;
71671;SDS011;67659;45.554;11.812;2024-02-23T08:41:21;13.40;;;5.32;;
71671;SDS011;67659;45.554;11.812;2024-02-23T08:43:46;16.23;;;6.28;;
71671;SDS011;67659;45.554;11.812;2024-02-23T08:46:12;14.57;;;5.78;;
71671;SDS011;67659;45.554;11.812;2024-02-23T09:45:11;15.93;;;6.35;;
71671;SDS011;67659;45.554;11.812;2024-02-23T09:47:38;15.80;;;6.90;;
71671;SDS011;67659;45.554;11.812;2024-02-23T09:50:05;15.40;;;7.43;;
71671;SDS011;67659;45.554;11.812;2024-02-23T09:52:33;18.97;;;8.20;;
71671;SDS011;67659;45.554;11.812;2024-02-23T09:54:59;18.63;;;8.20;;
71671;SDS011;67659;45.554;11.812;2024-02-23T09:57:25;20.23;;;9.32;;
71671;SDS011;67659;45.554;11.812;2024-02-23T09:59:52;21.27;;;9.90;;
71671;SDS011;67659;45.554;11.812;2024-02-23T10:02:17;16.48;;;9.27;;
71671;SDS011;67659;45.554;11.812;2024-02-23T10:04:43;21.70;;;9.55;;
71671;SDS011;67659;45.554;11.812;2024-02-23T10:07:09;16.93;;;8.60;;
71671;SDS011;67659;45.554;11.812;2024-02-23T10:09:36;18.30;;;8.27;;
71671;SDS011;67659;45.554;11.812;2024-02-23T10:12:02;18.20;;;7.20;;
71671;SDS011;67659;45.554;11.812;2024-02-23T10:14:28;14.32;;;6.50;;
71671;SDS011;67659;45.554;11.812;2024-02-23T10:16:54;16.45;;;6.60;;
71671;SDS011;67659;45.554;11.812;2024-02-23T10:19:20;16.67;;;7.23;;
71671;SDS011;67659;45.554;11.812;2024-02-23T10:21:46;15.27;;;7.15;;
71671;SDS011;67659;45.554;11.812;2024-02-23T10:24:12;15.63;;;7.43;;
71671;SDS011;67659;45.554;11.812;2024-02-23T10:26:41;15.88;;;7.07;;
71671;SDS011;67659;45.554;11.812;2024-02-23T10:29:07;17.80;;;7.43;;
71671;SDS011;67659;45.554;11.812;2024-02-23T10:31:35;15.57;;;7.53;;
71671;SDS011;67659;45.554;11.812;2024-02-23T10:34:05;15.48;;;7.68;;
71671;SDS011;67659;45.554;11.812;2024-02-23T10:36:40;19.63;;;8.15;;
71671;SDS011;67659;45.554;11.812;2024-02-23T10:39:08;19.85;;;8.40;;
71671;SDS011;67659;45.554;11.812;2024-02-23T10:41:35;16.80;;;8.03;;
71671;SDS011;67659;45.554;11.812;2024-02-23T10:44:04;53.25;;;28.73;;
71671;SDS011;67659;45.554;11.812;2024-02-23T10:46:31;18.73;;;9.52;;
71671;SDS011;67659;45.554;11.812;2024-02-23T10:48:58;16.60;;;7.43;;
71671;SDS011;67659;45.554;11.812;2024-02-23T10:51:27;15.48;;;7.05;;
71671;SDS011;67659;45.554;11.812;2024-02-23T10:53:54;15.17;;;6.43;;
71671;SDS011;67659;45.554;11.812;2024-02-23T10:56:20;16.23;;;6.47;;
71671;SDS011;67659;45.554;11.812;2024-02-23T10:58:48;15.10;;;6.28;;
71671;SDS011;67659;45.554;11.812;2024-02-23T11:01:13;13.38;;;5.50;;
71671;SDS011;67659;45.554;11.812;2024-02-23T11:03:41;13.55;;;5.80;;
71671;SDS011;67659;45.554;11.812;2024-02-23T11:06:11;14.40;;;5.90;;
71671;SDS011;67659;45.554;11.812;2024-02-23T11:08:37;104.57;;;59.83;;
71671;SDS011;67659;45.554;11.812;2024-02-23T11:11:07;18.50;;;7.45;;
71671;SDS011;67659;45.554;11.812;2024-02-23T11:13:37;16.25;;;6.05;;
71671;SDS011;67659;45.554;11.812;2024-02-23T11:16:06;13.47;;;6.63;;
71671;SDS011;67659;45.554;11.812;2024-02-23T11:18:34;15.10;;;7.18;;
71671;SDS011;67659;45.554;11.812;2024-02-23T11:21:02;13.07;;;6.63;;
71671;SDS011;67659;45.554;11.812;2024-02-23T11:23:41;14.88;;;6.10;;
71671;SDS011;67659;45.554;11.812;2024-02-23T11:26:09;14.07;;;6.68;;
71671;SDS011;67659;45.554;11.812;2024-02-23T11:28:42;13.30;;;6.10;;
71671;SDS011;67659;45.554;11.812;2024-02-23T11:31:13;13.82;;;6.70;;
71671;SDS011;67659;45.554;11.812;2024-02-23T11:33:40;12.98;;;6.35;;
71671;SDS011;67659;45.554;11.812;2024-02-23T11:39:35;11.25;;;6.03;;
71671;SDS011;67659;45.554;11.812;2024-02-23T11:42:04;13.10;;;6.10;;
71671;SDS011;67659;45.554;11.812;2024-02-23T11:44:31;14.57;;;7.38;;
71671;SDS011;67659;45.554;11.812;2024-02-23T11:46:58;17.40;;;8.25;;
71671;SDS011;67659;45.554;11.812;2024-02-23T11:49:31;20.83;;;10.23;;
71671;SDS011;67659;45.554;11.812;2024-02-23T11:51:57;15.77;;;8.10;;
71671;SDS011;67659;45.554;11.812;2024-02-23T11:54:22;16.23;;;7.90;;
71671;SDS011;67659;45.554;11.812;2024-02-23T11:56:48;14.00;;;7.55;;
71671;SDS011;67659;45.554;11.812;2024-02-23T11:59:15;13.13;;;7.13;;
71671;SDS011;67659;45.554;11.812;2024-02-23T12:01:41;12.80;;;6.20;;
71671;SDS011;67659;45.554;11.812;2024-02-23T12:04:08;16.08;;;7.10;;
71671;SDS011;67659;45.554;11.812;2024-02-23T12:06:34;15.32;;;7.15;;
71671;SDS011;67659;45.554;11.812;2024-02-23T12:09:00;15.10;;;7.00;;
71671;SDS011;67659;45.554;11.812;2024-02-23T12:11:26;15.60;;;6.73;;
71671;SDS011;67659;45.554;11.812;2024-02-23T12:13:53;14.48;;;6.68;;
71671;SDS011;67659;45.554;11.812;2024-02-23T12:16:20;14.65;;;7.05;;
71671;SDS011;67659;45.554;11.812;2024-02-23T12:18:52;23.13;;;7.65;;
71671;SDS011;67659;45.554;11.812;2024-02-23T12:21:20;15.75;;;6.85;;
71671;SDS011;67659;45.554;11.812;2024-02-23T12:23:48;18.10;;;7.30;;
71671;SDS011;67659;45.554;11.812;2024-02-23T12:26:15;15.07;;;7.43;;
71671;SDS011;67659;45.554;11.812;2024-02-23T12:28:43;15.43;;;7.82;;
71671;SDS011;67659;45.554;11.812;2024-02-23T12:31:09;15.38;;;7.55;;
71671;SDS011;67659;45.554;11.812;2024-02-23T12:33:36;15.15;;;8.27;;
71671;SDS011;67659;45.554;11.812;2024-02-23T12:36:05;65.27;;;33.63;;
71671;SDS011;67659;45.554;11.812;2024-02-23T12:38:31;78.10;;;40.50;;
71671;SDS011;67659;45.554;11.812;2024-02-23T12:40:58;82.82;;;43.92;;
71671;SDS011;67659;45.554;11.812;2024-02-23T12:43:25;88.50;;;47.88;;
71671;SDS011;67659;45.554;11.812;2024-02-23T12:45:54;90.22;;;48.17;;
71671;SDS011;67659;45.554;11.812;2024-02-23T12:48:20;95.57;;;52.43;;
71671;SDS011;67659;45.554;11.812;2024-02-23T12:50:47;57.42;;;36.47;;
71671;SDS011;67659;45.554;11.812;2024-02-23T12:55:59;17.20;;;8.48;;
71671;SDS011;67659;45.554;11.812;2024-02-23T12:58:29;13.60;;;7.50;;
71671;SDS011;67659;45.554;11.812;2024-02-23T13:00:56;16.63;;;8.10;;
71671;SDS011;67659;45.554;11.812;2024-02-23T13:03:23;14.30;;;8.00;;
71671;SDS011;67659;45.554;11.812;2024-02-23T13:05:52;17.15;;;8.18;;
71671;SDS011;67659;45.554;11.812;2024-02-23T13:08:19;15.65;;;8.50;;
71671;SDS011;67659;45.554;11.812;2024-02-23T13:10:46;14.85;;;7.82;;
71671;SDS011;67659;45.554;11.812;2024-02-23T13:13:12;14.70;;;8.50;;
71671;SDS011;67659;45.554;11.812;2024-02-23T13:15:40;15.85;;;8.57;;
71671;SDS011;67659;45.554;11.812;2024-02-23T13:18:07;41.63;;;19.60;;
71671;SDS011;67659;45.554;11.812;2024-02-23T13:20:33;61.15;;;27.52;;
71671;SDS011;67659;45.554;11.812;2024-02-23T13:22:59;79.87;;;32.63;;
71671;SDS011;67659;45.554;11.812;2024-02-23T13:25:25;52.15;;;36.13;;
71671;SDS011;67659;45.554;11.812;2024-02-23T13:27:51;42.38;;;36.17;;
71671;SDS011;67659;45.554;11.812;2024-02-23T13:30:16;26.67;;;20.10;;
71671;SDS011;67659;45.554;11.812;2024-02-23T13:32:42;22.00;;;11.68;;
71671;SDS011;67659;45.554;11.812;2024-02-23T13:35:08;17.23;;;9.98;;
71671;SDS011;67659;45.554;11.812;2024-02-23T13:37:34;19.08;;;11.90;;
71671;SDS011;67659;45.554;11.812;2024-02-23T13:40:00;26.53;;;16.37;;
71671;SDS011;67659;45.554;11.812;2024-02-23T13:42:26;20.35;;;10.75;;
71671;SDS011;67659;45.554;11.812;2024-02-23T13:44:52;17.77;;;9.77;;
71671;SDS011;67659;45.554;11.812;2024-02-23T13:47:18;17.70;;;9.57;;
71671;SDS011;67659;45.554;11.812;2024-02-23T13:49:44;18.63;;;10.50;;
71671;SDS011;67659;45.554;11.812;2024-02-23T13:52:10;17.93;;;10.33;;
71671;SDS011;67659;45.554;11.812;2024-02-23T13:54:36;19.52;;;10.98;;
71671;SDS011;67659;45.554;11.812;2024-02-23T13:57:02;17.00;;;9.93;;
71671;SDS011;67659;45.554;11.812;2024-02-23T13:59:28;17.17;;;9.93;;
71671;SDS011;67659;45.554;11.812;2024-02-23T14:01:54;19.43;;;10.73;;
71671;SDS011;67659;45.554;11.812;2024-02-23T14:04:20;18.58;;;10.13;;
71671;SDS011;67659;45.554;11.812;2024-02-23T14:06:46;20.83;;;11.10;;
71671;SDS011;67659;45.554;11.812;2024-02-23T14:09:12;19.27;;;11.03;;
71671;SDS011;67659;45.554;11.812;2024-02-23T14:11:38;19.98;;;11.48;;
71671;SDS011;67659;45.554;11.812;2024-02-23T14:14:05;18.65;;;10.90;;
71671;SDS011;67659;45.554;11.812;2024-02-23T14:16:32;21.00;;;12.60;;
71671;SDS011;67659;45.554;11.812;2024-02-23T14:18:58;22.40;;;12.70;;
71671;SDS011;67659;45.554;11.812;2024-02-23T14:21:24;23.48;;;13.30;;
71671;SDS011;67659;45.554;11.812;2024-02-23T14:23:50;21.23;;;13.18;;
71671;SDS011;67659;45.554;11.812;2024-02-23T14:26:16;23.10;;;14.25;;
71671;SDS011;67659;45.554;11.812;2024-02-23T14:28:42;24.60;;;14.80;;
71671;SDS011;67659;45.554;11.812;2024-02-23T14:31:08;23.53;;;13.47;;
71671;SDS011;67659;45.554;11.812;2024-02-23T14:33:34;19.90;;;13.15;;
71671;SDS011;67659;45.554;11.812;2024-02-23T14:36:00;24.30;;;13.50;;
71671;SDS011;67659;45.554;11.812;2024-02-23T14:38:26;19.10;;;11.13;;
71671;SDS011;67659;45.554;11.812;2024-02-23T14:40:52;15.68;;;9.63;;
71671;SDS011;67659;45.554;11.812;2024-02-23T14:43:18;17.23;;;9.82;;
71671;SDS011;67659;45.554;11.812;2024-02-23T14:45:44;16.80;;;9.93;;
71671;SDS011;67659;45.554;11.812;2024-02-23T14:48:10;17.88;;;10.43;;
71671;SDS011;67659;45.554;11.812;2024-02-23T14:50:36;18.60;;;10.85;;
71671;SDS011;67659;45.554;11.812;2024-02-23T14:53:02;17.55;;;10.70;;
71671;SDS011;67659;45.554;11.812;2024-02-23T14:55:28;16.52;;;10.70;;
71671;SDS011;67659;45.554;11.812;2024-02-23T14:57:55;15.77;;;9.83;;
71671;SDS011;67659;45.554;11.812;2024-02-23T15:00:23;17.20;;;9.50;;
71671;SDS011;67659;45.554;11.812;2024-02-23T15:02:49;14.10;;;9.25;;
71671;SDS011;67659;45.554;11.812;2024-02-23T15:05:15;14.88;;;9.75;;
71671;SDS011;67659;45.554;11.812;2024-02-23T15:07:42;16.15;;;9.63;;
71671;SDS011;67659;45.554;11.812;2024-02-23T15:10:08;17.00;;;9.97;;
71671;SDS011;67659;45.554;11.812;2024-02-23T15:12:35;17.27;;;10.38;;
71671;SDS011;67659;45.554;11.812;2024-02-23T15:15:01;15.75;;;9.45;;